Latest Weather Observations for Perth Airport

IDW60901

Issued at 9:31 pm WST Saturday 6 February 2016 (issued every 10 minutes, with the page automatically refreshed every 10 minutes)

About weather observations | Map of Perth area stations | Latest observations for Perth area | Other Formats
Station Details ID: 009021 Name: PERTH AIRPORT Lat: -31.93 Lon: 115.98 Height: 15.4 m
Data from the previous 72 hours. | See also: Recent months at Perth Airport
Date/Time
WST
Tmp

°C
App
Tmp
°C
Dew
Point
°C
Rel
Hum
%
Delta-T

°C
Wind Press
QNH
hPa
Press
MSL
hPa
Rain
since
9 am
mm
Dir
 
Spd
km/h
Gust
km/h
Spd
kts
Gust
kts
06/09:00pm 26.0 25.5 17.0 57 5.6 SSW 15 20 8 11 1014.7 1014.6 0.0
06/08:30pm 26.4 25.1 16.7 55 6.0 SSW 19 22 10 12 1014.5 - 0.0
06/08:00pm 26.6 25.5 16.4 53 6.3 SW 17 24 9 13 1014.2 - 0.0
06/07:30pm 27.2 25.4 16.0 50 6.9 SW 20 28 11 15 1013.8 - 0.0
06/07:00pm 28.3 26.1 15.0 44 8.1 SW 20 26 11 14 1013.5 - 0.0
06/06:30pm 29.7 27.3 14.5 39 9.2 SW 20 30 11 16 1013.2 - 0.0
06/06:00pm 30.5 28.0 15.2 39 9.4 SW 22 30 12 16 1013.0 1012.9 0.0
06/05:30pm 31.2 27.6 13.1 33 10.8 SW 24 30 13 16 1012.8 - 0.0
06/05:00pm 31.8 27.0 10.4 26 12.3 SW 26 32 14 17 1012.7 - 0.0
06/04:30pm 32.3 28.2 12.7 30 11.7 WSW 26 33 14 18 1012.7 - 0.0
06/04:00pm 32.9 28.5 11.6 27 12.5 SW 26 32 14 17 1012.9 - 0.0
06/03:30pm 32.3 27.4 11.4 27 12.2 SW 28 33 15 18 1013.1 - 0.0
06/03:00pm 32.5 28.2 12.0 28 12.1 SW 26 33 14 18 1013.3 1013.2 0.0
06/02:30pm 32.4 28.2 13.5 31 11.4 WSW 28 35 15 19 1013.2 - 0.0
06/02:00pm 32.6 29.7 14.0 32 11.3 WSW 22 33 12 18 1013.6 - 0.0
06/01:30pm 31.9 28.8 14.4 34 10.7 WSW 24 32 13 17 1013.7 - 0.0
06/01:00pm 32.3 28.9 14.7 34 10.8 WSW 26 33 14 18 1013.8 - 0.0
06/12:30pm 34.1 31.7 8.8 21 14.3 W 11 17 6 9 1013.8 - 0.0
06/12:00pm 33.3 31.2 9.9 23 13.4 W 11 24 6 13 1014.1 1014.0 0.0
06/11:30am 32.5 31.3 10.2 25 12.8 W 7 13 4 7 1014.5 - 0.0
06/11:00am 31.3 29.9 10.8 28 11.8 SW 9 13 5 7 1014.9 - 0.0
06/10:30am 31.0 29.2 10.8 28 11.6 S 11 17 6 9 1015.3 - 0.0
06/10:00am 30.3 28.2 11.0 30 11.1 SSW 13 19 7 10 1015.6 - 0.0
06/09:30am 28.3 26.1 10.9 34 9.9 E 13 19 7 10 1015.4 - 0.0
06/09:00am 27.7 25.1 11.9 37 9.1 ENE 17 24 9 13 1015.4 1015.3 0.0
06/08:30am 26.2 25.4 10.9 38 8.6 NE 6 9 3 5 1015.3 - 0.0
06/08:00am 25.3 25.0 11.5 42 7.8 SE 4 11 2 6 1015.5 - 0.0
06/07:30am 23.9 21.9 11.4 45 7.0 S 13 15 7 8 1015.2 - 0.0
06/07:00am 22.8 19.9 11.1 47 6.5 S 17 20 9 11 1015.0 - 0.0
06/06:30am 19.0 16.6 12.6 66 3.6 S 17 19 9 10 1014.7 - 0.0
06/06:00am 18.4 15.6 11.4 63 3.8 S 17 19 9 10 1014.3 1014.2 0.0
06/05:30am 21.4 18.9 11.1 52 5.7 S 15 19 8 10 1014.0 - 0.0
06/05:00am 22.0 19.0 10.7 48 6.2 SSE 17 20 9 11 1013.9 - 0.0
06/04:30am 22.7 20.9 10.7 46 6.6 S 11 17 6 9 1013.7 - 0.0
06/04:00am 23.4 21.1 10.5 44 7.1 S 13 19 7 10 1013.5 - 0.0
06/03:30am 23.4 20.8 10.8 45 7.0 S 15 20 8 11 1013.3 - 0.0
06/03:00am 23.2 20.4 11.4 47 6.6 S 17 19 9 10 1013.1 1013.0 0.0
06/02:30am 20.8 19.1 12.3 58 4.8 S 13 17 7 9 1012.9 - 0.0
06/02:00am 23.6 21.9 12.6 50 6.3 S 13 19 7 10 1012.9 - 0.0
06/01:30am 22.5 21.6 13.7 57 5.1 SSW 11 15 6 8 1013.3 - 0.0
06/01:00am 20.5 19.9 13.5 64 4.0 SSW 9 13 5 7 1013.2 - 0.0
06/12:30am 20.5 19.2 13.7 65 3.9 S 13 15 7 8 1013.4 - 0.0
06/12:00am 21.6 20.3 13.6 60 4.6 SSW 13 15 7 8 1013.7 1013.6 0.0
 
Date/Time
WST
Tmp

°C
App
Tmp
°C
Dew
Point
°C
Rel
Hum
%
Delta-T

°C
Wind Press
QNH
hPa
Press
MSL
hPa
Rain
since
9 am
mm
Dir
 
Spd
km/h
Gust
km/h
Spd
kts
Gust
kts
05/11:30pm 21.5 20.6 13.7 61 4.5 SSW 11 13 6 7 1013.9 - 0.0
05/11:00pm 24.5 23.0 13.1 49 6.6 SSW 13 15 7 8 1014.0 - 0.0
05/10:30pm 24.7 22.5 13.2 48 6.7 S 17 19 9 10 1014.1 - 0.0
05/10:00pm 25.5 23.1 12.7 45 7.4 SSW 17 20 9 11 1014.2 - 0.0
05/09:30pm 26.0 23.6 12.7 43 7.7 S 17 22 9 12 1014.1 - 0.0
05/09:00pm 26.4 23.2 11.9 40 8.3 S 20 24 11 13 1013.9 1013.8 0.0
05/08:30pm 26.9 23.9 12.0 39 8.6 SSW 19 24 10 13 1013.6 - 0.0
05/08:00pm 27.6 24.2 11.1 35 9.4 SSW 20 26 11 14 1013.3 - 0.0
05/07:30pm 28.4 24.2 9.8 31 10.4 SW 22 28 12 15 1013.0 - 0.0
05/07:00pm 29.8 25.2 8.1 25 11.9 SW 22 30 12 16 1012.8 - 0.0
05/06:30pm 31.0 25.4 7.3 22 12.9 SW 26 33 14 18 1012.5 - 0.0
05/06:00pm 31.9 26.2 6.8 21 13.6 SW 26 33 14 18 1012.4 1012.3 0.0
05/05:30pm 32.6 26.5 4.6 17 14.7 SW 26 33 14 18 1012.3 - 0.0
05/05:00pm 32.9 26.8 4.9 17 14.8 SW 26 33 14 18 1012.0 - 0.0
05/04:30pm 33.4 26.6 4.9 17 15.1 SW 30 39 16 21 1012.1 - 0.0
05/04:00pm 33.0 26.7 5.5 18 14.7 SW 28 33 15 18 1012.3 - 0.0
05/03:30pm 32.1 25.1 5.9 19 14.0 SW 32 41 17 22 1012.6 - 0.0
05/03:00pm 32.8 25.7 6.4 19 14.3 WSW 33 44 18 24 1012.8 1012.7 0.0
05/02:30pm 32.3 26.1 10.1 25 12.7 WSW 33 44 18 24 1012.6 - 0.0
05/02:00pm 34.4 27.1 4.3 15 15.9 WSW 32 41 17 22 1012.4 - 0.0
05/01:42pm 35.1 28.2 4.4 14 16.3 SW 30 39 16 21 1012.4 - 0.0
05/01:30pm 35.8 31.1 3.4 13 17.0 W 17 20 9 11 1012.4 - 0.0
05/01:00pm 35.7 31.8 3.5 13 16.9 S 13 19 7 10 1012.7 - 0.0
05/12:47pm 34.9 32.0 4.6 15 16.1 SSW 9 22 5 12 1012.9 - 0.0
05/12:30pm 34.6 31.3 4.7 15 15.9 W 11 24 6 13 1013.2 - 0.0
05/12:00pm 34.3 30.1 4.0 15 15.9 WNW 15 26 8 14 1013.6 1013.5 0.0
05/11:30am 33.6 31.1 4.6 16 15.3 NW 7 13 4 7 1014.0 - 0.0
05/11:00am 33.6 30.4 7.0 19 14.6 N 13 20 7 11 1014.3 - 0.0
05/10:30am 32.8 29.4 6.0 18 14.4 NE 13 22 7 12 1014.8 - 0.0
05/10:00am 31.7 28.8 6.7 21 13.5 N 11 20 6 11 1015.0 - 0.0
05/09:30am 30.7 27.7 7.9 24 12.5 N 13 19 7 10 1015.1 - 0.0
05/09:00am 29.1 26.2 8.0 26 11.5 NNE 13 17 7 9 1015.2 1015.1 0.0
05/08:30am 28.0 24.7 8.1 28 10.8 ENE 15 19 8 10 1015.2 - 0.0
05/08:00am 26.1 22.6 7.1 29 10.0 ENE 15 19 8 10 1015.4 - 0.0
05/07:30am 24.8 20.9 7.0 32 9.3 ENE 17 24 9 13 1015.4 - 0.0
05/07:00am 23.3 19.4 7.1 35 8.4 ENE 17 28 9 15 1015.3 - 0.0
05/06:30am 21.9 18.0 6.9 38 7.7 ENE 17 20 9 11 1015.0 - 0.0
05/06:00am 20.9 16.6 7.0 40 7.1 ENE 19 26 10 14 1014.8 1014.7 0.0
05/05:30am 20.0 16.3 8.0 46 6.2 E 17 20 9 11 1014.6 - 0.0
05/05:00am 20.0 16.2 7.5 44 6.4 E 17 19 9 10 1014.2 - 0.0
05/04:30am 21.0 17.9 7.4 41 7.0 ENE 13 15 7 8 1013.9 - 0.0
05/04:00am 20.9 17.5 7.8 42 6.8 ENE 15 17 8 9 1013.8 - 0.0
05/03:30am 21.6 18.1 7.2 39 7.4 WSW 15 17 8 9 1013.8 - 0.0
05/03:00am 19.5 17.0 8.3 48 5.8 WSW 11 13 6 7 1014.0 1013.9 0.0
05/02:30am 16.2 14.9 9.9 66 3.3 WSW 7 7 4 4 1014.1 - 0.0
05/02:00am 16.5 15.3 10.3 67 3.3 S 7 9 4 5 1014.2 - 0.0
05/01:30am 16.7 16.8 10.3 66 3.4 CALM 0 0 0 0 1014.4 - 0.0
05/01:00am 17.4 17.5 10.0 62 3.9 CALM 0 7 0 4 1014.7 - 0.0
05/12:30am 17.1 17.1 9.9 62 3.8 CALM 0 6 0 3 1014.9 - 0.0
05/12:00am 18.1 17.1 10.2 60 4.2 S 6 7 3 4 1015.1 1015.0 0.0
 
Date/Time
WST
Tmp

°C
App
Tmp
°C
Dew
Point
°C
Rel
Hum
%
Delta-T

°C
Wind Press
QNH
hPa
Press
MSL
hPa
Rain
since
9 am
mm
Dir
 
Spd
km/h
Gust
km/h
Spd
kts
Gust
kts
04/11:30pm 19.2 18.8 9.8 54 5.0 S 2 9 1 5 1015.1 - 0.0
04/11:00pm 19.7 17.5 9.5 51 5.4 SSW 11 13 6 7 1015.4 - 0.0
04/10:30pm 21.6 18.9 10.4 49 6.1 SSW 15 17 8 9 1015.6 - 0.0
04/10:00pm 23.9 20.9 9.3 39 7.9 S 15 19 8 10 1015.6 - 0.0
04/09:30pm 25.4 21.1 7.9 32 9.3 S 20 24 11 13 1015.7 - 0.0
04/09:00pm 25.8 22.3 8.6 33 9.3 SSW 17 19 9 10 1015.6 1015.5 0.0
04/08:30pm 26.2 22.9 8.1 31 9.7 SSW 15 17 8 9 1015.5 - 0.0
04/08:00pm 26.9 23.1 7.6 29 10.3 SSW 17 22 9 12 1015.3 - 0.0
04/07:30pm 27.7 22.8 7.0 27 11.0 SSW 22 30 12 16 1015.1 - 0.0
04/07:00pm 28.7 23.2 6.1 24 11.9 SSW 24 32 13 17 1014.9 - 0.0
04/06:30pm 29.7 23.9 6.4 23 12.4 SSW 26 33 14 18 1014.6 - 0.0
04/06:00pm 30.6 24.2 6.8 22 12.8 SSW 30 37 16 20 1014.4 1014.3 0.0
04/05:30pm 31.1 24.4 8.0 23 12.7 SSW 33 41 18 22 1014.3 - 0.0
04/05:00pm 33.3 27.2 6.7 19 14.5 SW 28 35 15 19 1013.9 - 0.0
04/04:30pm 34.7 31.6 3.8 14 16.2 ESE 9 13 5 7 1013.9 - 0.0
04/04:00pm 34.4 30.8 3.1 14 16.2 NE 11 17 6 9 1014.0 - 0.0
04/03:30pm 34.5 31.7 3.3 14 16.2 NNE 7 11 4 6 1014.1 - 0.0
04/03:00pm 33.7 30.3 4.1 15 15.5 E 11 19 6 10 1014.5 1014.4 0.0
04/02:42pm 33.9 30.3 3.0 14 15.9 NE 11 20 6 11 1014.8 - 0.0
04/02:30pm 33.5 30.0 5.4 17 15.0 ENE 13 26 7 14 1014.9 - 0.0
04/02:00pm 33.5 29.2 5.4 17 15.0 NNE 17 20 9 11 1015.4 - 0.0
04/01:30pm 33.1 29.3 5.6 18 14.7 ENE 15 30 8 16 1015.9 - 0.0
04/01:00pm 32.2 27.1 6.1 19 14.0 NNE 22 30 12 16 1016.5 - 0.0
04/12:30pm 30.9 27.7 7.0 22 12.9 ENE 13 32 7 17 1016.9 - 0.0
04/12:00pm 30.9 27.7 7.0 22 12.9 E 13 20 7 11 1017.3 1017.2 0.0
04/11:30am 29.8 24.6 7.1 24 12.2 NE 24 33 13 18 1017.9 - 0.0
04/11:00am 29.8 25.8 8.3 26 11.8 ENE 19 30 10 16 1018.3 - 0.0
04/10:30am 28.8 24.7 8.5 28 11.1 ENE 20 32 11 17 1018.6 - 0.0
04/10:00am 27.7 22.8 8.6 30 10.4 ENE 24 32 13 17 1018.9 - 0.0
04/09:30am 27.1 21.3 9.5 33 9.7 ENE 30 35 16 19 1018.9 - 0.0
04/09:00am 25.4 19.3 9.7 37 8.6 E 32 37 17 20 1019.3 1019.2 0.0
04/08:30am 23.5 17.3 10.2 43 7.3 ENE 33 41 18 22 1019.4 - 0.0
04/08:00am 21.8 15.3 10.2 47 6.3 ENE 35 46 19 25 1019.4 - 0.0
04/07:30am 20.4 13.9 10.2 52 5.5 E 35 48 19 26 1019.2 - 0.0
04/07:14am 19.8 13.3 10.3 54 5.1 ENE 35 54 19 29 1019.2 - 0.0
04/07:00am 19.6 12.7 10.3 55 5.0 E 37 48 20 26 1019.0 - 0.0
04/06:30am 19.2 12.6 10.0 55 4.9 E 35 50 19 27 1018.8 - 0.0
04/06:00am 18.8 13.2 10.0 56 4.7 E 30 39 16 21 1018.9 1018.8 0.0
04/05:30am 19.1 13.8 9.7 54 5.0 ENE 28 37 15 20 1018.7 - 0.0
04/05:00am 19.5 14.1 9.5 52 5.3 ENE 28 39 15 21 1018.4 - 0.0
04/04:30am 19.8 13.9 9.2 50 5.6 ENE 30 39 16 21 1018.1 - 0.0
04/04:00am 20.0 14.0 8.7 48 5.9 E 30 41 16 22 1017.9 - 0.0
04/03:30am 20.4 14.7 8.3 45 6.3 E 28 35 15 19 1018.1 - 0.0
04/03:00am 20.7 15.4 6.9 40 7.0 ENE 24 32 13 17 1018.0 1017.9 0.0
04/02:30am 21.1 16.6 6.2 38 7.5 ENE 19 26 10 14 1018.0 - 0.0
04/02:00am 21.5 15.9 5.4 35 8.0 ENE 24 30 13 16 1017.9 - 0.0
04/01:30am 20.7 16.5 5.5 37 7.5 ENE 17 22 9 12 1017.6 - 0.0
04/01:00am 18.6 15.8 7.0 46 5.8 E 11 17 6 9 1017.9 - 0.0
04/12:30am 15.3 15.7 12.6 84 1.5 S 2 7 1 4 1018.4 - 0.0
04/12:00am 16.3 17.3 13.1 81 1.8 CALM 0 0 0 0 1018.4 1018.3 0.0
 
Date/Time
WST
Tmp

°C
App
Tmp
°C
Dew
Point
°C
Rel
Hum
%
Delta-T

°C
Wind Press
QNH
hPa
Press
MSL
hPa
Rain
since
9 am
mm
Dir
 
Spd
km/h
Gust
km/h
Spd
kts
Gust
kts
03/11:30pm 17.2 16.5 13.3 78 2.2 S 9 11 5 6 1018.5 - 0.0
03/11:00pm 19.7 18.1 14.0 69 3.3 S 15 19 8 10 1018.6 - 0.0
03/10:30pm 20.9 18.4 13.6 63 4.2 S 19 24 10 13 1018.6 - 0.0
03/10:00pm 21.7 19.2 13.5 59 4.7 S 19 22 10 12 1018.9 - 0.0

Latest Capital City Observations: Canberra | Sydney | Melbourne | Brisbane | Adelaide | Perth | Hobart | Darwin

Other Formats:

Comma delimited format used in spreadsheet applications
http://www.bom.gov.au/fwo/IDW60901/IDW60901.94610.axf

JavaScript Object Notation format (JSON) in row-major order
http://www.bom.gov.au/fwo/IDW60901/IDW60901.94610.json